Time;durP1;ratioP1;P1;durP2;ratioP2;P2;SDS_P1;SDS_P2;PMS_P1;PMS_P2;Temp;Humidity;BMP_temperature;BMP_pressure;BME280_temperature;BME280_humidity;BME280_pressure;Samples;Min_cycle;Max_cycle;Signal;HPM_P1;HPM_P2
2022/01/19 14:45:38;;;;;;;12.40;6.82;;;;;;;;;;5089493;27;1425167;-77
2022/01/19 14:48:16;;;;;;;14.93;8.05;;;;;;;;;;5084804;28;20031;-75
2022/01/19 14:50:42;;;;;;;11.15;7.18;;;;;;;;;;5098476;28;20023;-76
2022/01/19 14:53:12;;;;;;;16.25;7.40;;;;;;;;;;5092892;28;20024;-76
2022/01/19 14:55:44;;;;;;;14.30;7.18;;;;;;;;;;5103864;28;20089;-76
2022/01/19 14:58:12;;;;;;;12.38;6.78;;;;;;;;;;5106000;28;20059;-76
2022/01/19 15:00:41;;;;;;;11.20;7.05;;;;;;;;;;5092112;28;20035;-76
2022/01/19 15:03:07;;;;;;;14.52;7.05;;;;;;;;;;5086000;28;20024;-76
2022/01/19 15:05:38;;;;;;;15.43;7.20;;;;;;;;;;5108199;28;20031;-77
2022/01/19 15:08:04;;;;;;;13.23;6.55;;;;;;;;;;5096727;28;20490;-77
2022/01/19 15:10:31;;;;;;;18.35;6.70;;;;;;;;;;5090976;28;20040;-76
2022/01/19 15:12:56;;;;;;;13.60;7.45;;;;;;;;;;5102548;28;20479;-76
2022/01/19 15:15:25;;;;;;;9.70;6.28;;;;;;;;;;5078620;28;20033;-76
2022/01/19 15:17:52;;;;;;;11.00;6.75;;;;;;;;;;5091768;28;20031;-76
2022/01/19 15:20:18;;;;;;;10.95;6.35;;;;;;;;;;5096010;28;20035;-75
2022/01/19 15:22:44;;;;;;;9.38;6.82;;;;;;;;;;5101748;28;20088;-74
2022/01/19 15:25:10;;;;;;;9.52;6.40;;;;;;;;;;5100302;28;20114;-74
2022/01/19 15:27:36;;;;;;;11.57;6.68;;;;;;;;;;5108255;28;20035;-74
2022/01/19 15:30:03;;;;;;;9.20;5.88;;;;;;;;;;5096729;28;20023;-77
2022/01/19 15:32:28;;;;;;;9.45;6.38;;;;;;;;;;5080491;28;20030;-75
2022/01/19 15:34:54;;;;;;;11.45;6.35;;;;;;;;;;5096045;28;20020;-75
2022/01/19 15:37:19;;;;;;;10.02;6.32;;;;;;;;;;5098449;28;20101;-75
2022/01/19 15:39:47;;;;;;;10.23;7.00;;;;;;;;;;5098037;28;20056;-76
2022/01/19 15:42:16;;;;;;;10.32;5.78;;;;;;;;;;5107124;28;20111;-75
2022/01/19 15:44:43;;;;;;;17.20;6.70;;;;;;;;;;5087853;28;20141;-76
2022/01/19 15:47:09;;;;;;;8.25;5.47;;;;;;;;;;5095493;28;20448;-75
2022/01/19 15:49:34;;;;;;;9.30;5.30;;;;;;;;;;5093739;28;20143;-76
2022/01/19 15:52:00;;;;;;;8.25;5.90;;;;;;;;;;5073431;28;20473;-75
2022/01/19 15:54:25;;;;;;;9.50;5.95;;;;;;;;;;5099960;28;20050;-76
2022/01/19 15:56:51;;;;;;;7.82;5.25;;;;;;;;;;5089377;28;20110;-75
2022/01/19 15:59:17;;;;;;;8.07;5.32;;;;;;;;;;5087835;28;20683;-75
2022/01/19 16:01:43;;;;;;;10.15;4.80;;;;;;;;;;5079937;28;20064;-75
2022/01/19 16:04:09;;;;;;;7.97;4.63;;;;;;;;;;5078698;28;20029;-75
2022/01/19 16:06:36;;;;;;;8.23;5.32;;;;;;;;;;5033074;28;20054;-75
2022/01/19 16:09:02;;;;;;;7.43;5.43;;;;;;;;;;5008684;28;20497;-75
2022/01/19 16:11:28;;;;;;;7.32;5.25;;;;;;;;;;5011760;28;20537;-75
2022/01/19 16:13:53;;;;;;;8.07;5.15;;;;;;;;;;5013822;28;20046;-75
2022/01/19 16:16:18;;;;;;;10.13;5.57;;;;;;;;;;5012987;28;20117;-75
2022/01/19 16:18:44;;;;;;;8.63;4.78;;;;;;;;;;5013489;28;20034;-76
2022/01/19 16:21:15;;;;;;;7.28;4.13;;;;;;;;;;4992083;28;20034;-77
2022/01/19 16:26:24;;;;;;;;;;;;;;;;;;5011146;28;20110;-75
2022/01/19 16:28:55;;;;;;;11.53;3.90;;;;;;;;;;5009315;28;19953;-76
2022/01/19 16:31:22;;;;;;;7.95;3.92;;;;;;;;;;5009943;28;20701;-76
2022/01/19 16:33:47;;;;;;;7.80;4.20;;;;;;;;;;5003035;28;20026;-76
2022/01/19 16:36:12;;;;;;;8.45;4.53;;;;;;;;;;5004371;28;20056;-76
